Terminal Aerodrome Forecast
Issued by NWS

Home | Current Version | Previous Version | Text Only | Print | Product List | Glossary On
Versions: 1 2 3 4 5 6 7 8 9 10 11 12 13 14 15 16 17 18 19 20 21 22
000
FTUS41 KGYX 231120
TAFLEB
TAF
KLEB 231120Z 2312/2412 00000KT P6SM BKN250
     FM231900 16008KT 3SM -RASN OVC025
     FM232000 16008KT 1SM -RA OVC025
     FM232300 17008KT 1SM -RA OVC015
     FM240300 19006KT P6SM OVC007
     FM240900 27007KT P6SM SCT040=

USA.gov is the U.S. government's official web portal to all federal, state and local government web resources and services.